Time;durP1;ratioP1;P1;durP2;ratioP2;P2;SDS_P1;SDS_P2;PMS_P1;PMS_P2;Temp;Humidity;BMP_temperature;BMP_pressure;BME280_temperature;BME280_humidity;BME280_pressure;Samples;Min_cycle;Max_cycle;Signal;HPM_P1;HPM_P2
2022/12/24 00:00:06;;;;;;;11.98;6.78;;;6.50;99.90;;;;;;6197176;23;20008;-83
2022/12/24 00:02:31;;;;;;;9.43;6.35;;;6.50;99.90;;;;;;6218391;23;20001;-83
2022/12/24 00:04:57;;;;;;;10.98;6.03;;;6.40;99.90;;;;;;6222203;23;20007;-83
2022/12/24 00:07:22;;;;;;;9.98;6.25;;;6.40;99.90;;;;;;6223942;23;20001;-83
2022/12/24 00:09:48;;;;;;;11.63;6.75;;;6.50;99.90;;;;;;6196470;23;20079;-84
2022/12/24 00:12:14;;;;;;;11.32;6.65;;;6.50;99.90;;;;;;6222998;23;20518;-83
2022/12/24 00:14:41;;;;;;;10.82;6.75;;;6.40;99.90;;;;;;6223411;23;20013;-84
2022/12/24 00:17:10;;;;;;;14.77;7.82;;;6.40;99.90;;;;;;6222965;23;20008;-84
2022/12/24 00:19:36;;;;;;;13.25;7.78;;;6.40;99.90;;;;;;6222464;23;20009;-84
2022/12/24 00:22:02;;;;;;;11.73;7.03;;;6.40;99.90;;;;;;6222494;23;20008;-82
2022/12/24 00:24:28;;;;;;;14.02;8.13;;;6.40;99.90;;;;;;6196048;23;20008;-84
2022/12/24 00:26:54;;;;;;;11.55;7.50;;;6.40;99.90;;;;;;6222673;23;19993;-84
2022/12/24 00:29:19;;;;;;;13.05;8.40;;;6.40;99.90;;;;;;6195752;23;20393;-84
2022/12/24 00:31:45;;;;;;;15.65;8.45;;;6.40;99.90;;;;;;6223403;23;20008;-84
2022/12/24 00:34:11;;;;;;;11.95;7.28;;;6.40;99.90;;;;;;6195731;23;20348;-82
2022/12/24 00:36:37;;;;;;;14.63;8.48;;;6.40;99.90;;;;;;6222406;23;20005;-84
2022/12/24 00:39:06;;;;;;;14.18;8.38;;;6.40;99.90;;;;;;6171060;23;20012;-82
2022/12/24 00:41:31;;;;;;;12.25;7.47;;;6.40;99.90;;;;;;6170306;23;20032;-82
2022/12/24 00:44:00;;;;;;;11.30;7.45;;;6.40;99.90;;;;;;6183825;23;20451;-82
2022/12/24 00:46:28;;;;;;;12.40;7.47;;;6.40;99.90;;;;;;6183490;23;20058;-84
2022/12/24 00:48:54;;;;;;;15.15;7.55;;;6.40;99.90;;;;;;6183962;23;20007;-84
2022/12/24 00:51:20;;;;;;;10.50;6.50;;;6.40;99.90;;;;;;6183480;23;20012;-84
2022/12/24 00:53:46;;;;;;;12.13;7.65;;;6.40;99.90;;;;;;6183427;23;20004;-83
2022/12/24 00:56:11;;;;;;;11.13;6.90;;;6.40;99.90;;;;;;6210443;23;20015;-84
2022/12/24 00:58:37;;;;;;;11.25;7.47;;;6.40;99.90;;;;;;6211938;23;20012;-84
2022/12/24 01:01:03;;;;;;;10.85;7.07;;;6.50;99.90;;;;;;6184766;23;20088;-82
2022/12/24 01:03:35;;;;;;;17.23;9.40;;;6.50;99.90;;;;;;6185596;23;20476;-83
2022/12/24 01:06:06;;;;;;;11.40;7.50;;;6.50;99.90;;;;;;6212527;23;20043;-83
2022/12/24 01:08:32;;;;;;;11.93;7.93;;;6.40;99.90;;;;;;6186159;23;20007;-83
2022/12/24 01:10:58;;;;;;;12.65;8.60;;;6.40;99.90;;;;;;6211792;23;20046;-84
2022/12/24 01:13:24;;;;;;;14.30;7.68;;;6.40;99.90;;;;;;6212423;23;20000;-83
2022/12/24 01:15:50;;;;;;;11.82;7.30;;;6.40;99.90;;;;;;6185109;23;20008;-83
2022/12/24 01:18:16;;;;;;;16.85;7.90;;;6.40;99.90;;;;;;6212110;23;20027;-83
2022/12/24 01:20:42;;;;;;;15.75;8.57;;;6.40;99.90;;;;;;6211720;23;20047;-83
2022/12/24 01:23:07;;;;;;;12.80;7.45;;;6.40;99.90;;;;;;6211642;23;20008;-83
2022/12/24 01:25:33;;;;;;;12.55;8.02;;;6.40;99.90;;;;;;6185644;23;20008;-83
2022/12/24 01:27:58;;;;;;;15.23;8.68;;;6.40;99.90;;;;;;6185621;23;20046;-83
2022/12/24 01:30:24;;;;;;;16.02;8.25;;;6.40;99.90;;;;;;6211540;23;20015;-83
2022/12/24 01:32:50;;;;;;;16.58;8.23;;;6.40;99.90;;;;;;6211978;23;20004;-83
2022/12/24 01:35:16;;;;;;;13.07;7.80;;;6.40;99.90;;;;;;6212901;23;20004;-82
2022/12/24 01:37:42;;;;;;;12.43;7.75;;;6.40;99.90;;;;;;6223207;23;20008;-83
2022/12/24 01:45:50;;;;;;;12.85;7.65;;;6.40;99.90;;;;;;6224769;23;20080;-82
2022/12/24 01:48:41;;;;;;;10.82;7.40;;;6.40;99.90;;;;;;6224952;23;19996;-82
2022/12/24 01:51:13;;;;;;;12.40;8.07;;;6.40;99.90;;;;;;6180619;23;20062;-82
2022/12/24 01:53:40;;;;;;;11.23;7.35;;;6.40;99.90;;;;;;6197171;23;20011;-82
2022/12/24 01:56:10;;;;;;;14.23;8.55;;;6.40;99.90;;;;;;6196709;23;20004;-83
2022/12/24 01:58:36;;;;;;;12.73;7.53;;;6.40;99.90;;;;;;6197143;23;20012;-82
2022/12/24 02:01:03;;;;;;;12.65;8.45;;;6.40;99.90;;;;;;6197437;23;20004;-82
2022/12/24 02:03:28;;;;;;;15.73;8.23;;;6.40;99.90;;;;;;6197559;23;20000;-82
2022/12/24 02:05:56;;;;;;;15.50;8.88;;;6.30;99.90;;;;;;6224551;23;20047;-81
2022/12/24 02:08:22;;;;;;;15.40;9.27;;;6.40;99.90;;;;;;6223593;23;20500;-81
2022/12/24 02:10:49;;;;;;;13.52;7.88;;;6.40;99.90;;;;;;6196539;23;20459;-81
2022/12/24 02:13:19;;;;;;;12.65;8.30;;;6.40;99.90;;;;;;6197853;23;20031;-82
2022/12/24 02:16:09;;;;;;;14.80;8.07;;;6.40;99.90;;;;;;6197905;23;20040;-83
2022/12/24 02:19:05;;;;;;;12.53;7.63;;;6.40;99.90;;;;;;6197066;23;20008;-82
2022/12/24 02:21:52;;;;;;;13.68;8.25;;;6.40;99.90;;;;;;6224282;23;20001;-83
2022/12/24 02:24:48;;;;;;;12.13;8.25;;;6.40;99.90;;;;;;6198003;23;20005;-83
2022/12/24 02:27:26;;;;;;;12.73;8.15;;;6.40;99.90;;;;;;6198944;23;20051;-83
2022/12/24 02:29:54;;;;;;;11.88;6.93;;;6.40;99.90;;;;;;6197914;23;20088;-83
2022/12/24 02:32:45;;;;;;;13.15;8.13;;;6.30;99.90;;;;;;6225034;23;20001;-82
2022/12/24 02:35:14;;;;;;;;;;;6.40;99.90;;;;;;6206266;23;20275;-82
2022/12/24 02:37:48;;;;;;;15.23;7.93;;;6.40;99.90;;;;;;6223781;23;19899;-82
2022/12/24 02:40:30;;;;;;;11.75;7.43;;;6.40;99.90;;;;;;6197647;23;20036;-83
2022/12/24 02:43:01;;;;;;;13.73;7.82;;;6.40;99.90;;;;;;6216032;23;20079;-84
2022/12/24 02:45:33;;;;;;;13.52;8.07;;;6.40;99.90;;;;;;6185489;23;20005;-84
2022/12/24 02:47:59;;;;;;;16.58;9.02;;;6.40;99.90;;;;;;6211354;23;20011;-82
2022/12/24 02:50:25;;;;;;;14.75;7.97;;;6.30;99.90;;;;;;6184533;23;20474;-83
2022/12/24 02:52:51;;;;;;;13.48;8.27;;;6.30;99.90;;;;;;6184911;23;20005;-82
2022/12/24 02:55:21;;;;;;;14.38;8.57;;;6.30;99.90;;;;;;6210904;23;19996;-83
2022/12/24 02:58:15;;;;;;;12.02;7.47;;;6.30;99.90;;;;;;6211394;23;20008;-86
2022/12/24 03:01:22;;;;;;;13.70;7.40;;;6.30;99.90;;;;;;6210595;23;20514;-83
2022/12/24 03:04:09;;;;;;;14.63;7.97;;;6.30;99.90;;;;;;6211656;23;20339;-86
2022/12/24 03:07:10;;;;;;;15.68;8.23;;;6.30;99.90;;;;;;6183683;23;20007;-84
2022/12/24 03:09:59;;;;;;;12.00;7.10;;;6.30;99.90;;;;;;6035442;23;20011;-83
2022/12/24 03:12:41;;;;;;;12.27;7.43;;;6.30;99.90;;;;;;6203875;23;20435;-82
2022/12/24 03:15:10;;;;;;;16.77;8.40;;;6.30;99.90;;;;;;6211557;23;20083;-82
2022/12/24 03:17:39;;;;;;;12.75;7.35;;;6.40;99.90;;;;;;6211064;23;19993;-82
2022/12/24 03:20:09;;;;;;;14.05;7.97;;;6.30;99.90;;;;;;6183788;23;20051;-82
2022/12/24 03:22:35;;;;;;;12.57;7.47;;;6.30;99.90;;;;;;6211046;23;20451;-82
2022/12/24 03:25:02;;;;;;;11.40;6.93;;;6.30;99.90;;;;;;6183361;23;20096;-82
2022/12/24 03:27:31;;;;;;;13.15;7.30;;;6.30;99.90;;;;;;6184197;23;20000;-82
2022/12/24 03:29:57;;;;;;;11.32;6.95;;;6.30;99.90;;;;;;6210359;23;20004;-82
2022/12/24 03:32:26;;;;;;;11.82;7.75;;;6.40;99.90;;;;;;6211059;23;20028;-81
2022/12/24 03:34:52;;;;;;;10.65;6.47;;;6.40;99.90;;;;;;6211215;23;20143;-81
2022/12/24 03:37:18;;;;;;;9.60;6.15;;;6.40;99.90;;;;;;6184673;23;20009;-81
2022/12/24 03:39:44;;;;;;;12.73;7.68;;;6.40;99.90;;;;;;6211474;23;20007;-82
2022/12/24 03:42:09;;;;;;;8.98;6.30;;;6.30;99.90;;;;;;6184688;23;20383;-83
2022/12/24 03:44:35;;;;;;;11.18;6.57;;;6.30;99.90;;;;;;6185419;23;20047;-82
2022/12/24 03:47:00;;;;;;;10.95;6.40;;;6.30;99.90;;;;;;6211056;23;20004;-82
2022/12/24 03:49:26;;;;;;;11.30;6.22;;;6.30;99.90;;;;;;6210199;23;20005;-82
2022/12/24 03:51:51;;;;;;;10.48;5.45;;;6.30;99.90;;;;;;6183973;23;20009;-82
2022/12/24 03:54:17;;;;;;;10.57;6.15;;;6.30;99.90;;;;;;6183951;23;20091;-82
2022/12/24 03:56:42;;;;;;;11.50;6.55;;;6.30;99.90;;;;;;6210770;23;20001;-82
2022/12/24 03:59:08;;;;;;;10.10;5.63;;;6.30;99.90;;;;;;6183639;23;20032;-84
2022/12/24 04:01:34;;;;;;;9.98;6.10;;;6.30;99.90;;;;;;6210220;23;20402;-84
2022/12/24 04:03:59;;;;;;;9.13;5.28;;;6.30;99.90;;;;;;6183875;23;20036;-83
2022/12/24 04:06:25;;;;;;;9.77;4.93;;;6.40;99.90;;;;;;6184164;23;20000;-82
2022/12/24 04:08:50;;;;;;;9.13;5.20;;;6.30;99.90;;;;;;6210277;23;20000;-82
2022/12/24 04:11:16;;;;;;;8.07;5.28;;;6.30;99.90;;;;;;6183163;23;20008;-83
2022/12/24 04:13:42;;;;;;;9.45;6.00;;;6.30;99.90;;;;;;6182809;23;20355;-83
2022/12/24 04:16:10;;;;;;;8.38;4.80;;;6.30;99.90;;;;;;6185321;23;20009;-83
2022/12/24 04:18:37;;;;;;;9.93;6.05;;;6.30;99.90;;;;;;6186366;23;20343;-82
2022/12/24 04:21:03;;;;;;;9.23;5.88;;;6.30;99.90;;;;;;6211265;23;20431;-83
2022/12/24 04:23:35;;;;;;;10.38;6.07;;;6.30;99.90;;;;;;6186859;23;20007;-85
2022/12/24 04:26:06;;;;;;;10.68;5.88;;;6.30;99.90;;;;;;6186403;23;20032;-85
2022/12/24 04:28:33;;;;;;;9.80;5.57;;;6.30;99.90;;;;;;6213102;23;20000;-86
2022/12/24 04:31:05;;;;;;;10.27;5.88;;;6.30;99.90;;;;;;6185725;23;20008;-87
2022/12/24 04:33:31;;;;;;;11.50;6.90;;;6.30;99.90;;;;;;6214299;23;20004;-85
2022/12/24 04:35:58;;;;;;;9.85;5.95;;;6.30;99.90;;;;;;6188232;23;20005;-85
2022/12/24 04:38:24;;;;;;;9.52;6.07;;;6.30;99.90;;;;;;6184538;23;20082;-84
2022/12/24 04:40:58;;;;;;;10.23;5.80;;;6.30;99.90;;;;;;6182912;23;20009;-84
2022/12/24 04:43:23;;;;;;;8.52;5.45;;;6.30;99.90;;;;;;6210204;23;20458;-85
2022/12/24 04:45:49;;;;;;;9.60;5.25;;;6.30;99.90;;;;;;6183719;23;20032;-85
2022/12/24 04:48:14;;;;;;;9.35;5.70;;;6.30;99.90;;;;;;6183721;23;19997;-85
2022/12/24 04:50:40;;;;;;;8.88;5.25;;;6.40;99.90;;;;;;6183108;23;20095;-85
2022/12/24 04:53:05;;;;;;;9.07;5.20;;;6.40;99.90;;;;;;6184101;23;20023;-85
2022/12/24 04:55:31;;;;;;;9.77;5.47;;;6.40;99.90;;;;;;6209755;23;20339;-85
2022/12/24 04:57:56;;;;;;;10.20;5.97;;;6.40;99.90;;;;;;6210605;23;20260;-84
2022/12/24 05:00:22;;;;;;;11.07;5.93;;;6.40;99.90;;;;;;6209782;23;20026;-84
2022/12/24 05:02:47;;;;;;;8.35;5.50;;;6.40;99.90;;;;;;6183661;23;20435;-81
2022/12/24 05:05:13;;;;;;;10.25;5.65;;;6.40;99.90;;;;;;6183849;23;20032;-81
2022/12/24 05:07:38;;;;;;;9.88;5.82;;;6.40;99.90;;;;;;6183591;23;20011;-81
2022/12/24 05:10:05;;;;;;;11.88;6.60;;;6.40;99.90;;;;;;6209232;23;20313;-80
2022/12/24 05:12:30;;;;;;;12.02;6.13;;;6.50;99.90;;;;;;6210126;23;20009;-79
2022/12/24 05:14:56;;;;;;;10.25;6.13;;;6.50;99.90;;;;;;6210034;23;20015;-80
2022/12/24 05:17:21;;;;;;;15.93;7.45;;;6.50;99.90;;;;;;6210296;23;20454;-82
2022/12/24 05:19:47;;;;;;;17.40;7.97;;;6.70;99.90;;;;;;6182942;23;20003;-83
2022/12/24 05:27:40;;;;;;;9.90;5.78;;;6.90;99.90;;;;;;6210371;23;20051;-81
2022/12/24 05:30:06;;;;;;;13.82;5.10;;;7.10;99.90;;;;;;6209880;23;20375;-82
2022/12/24 05:32:32;;;;;;;14.60;5.93;;;7.20;99.90;;;;;;6210382;23;20309;-82
2022/12/24 05:34:57;;;;;;;9.15;4.47;;;7.30;99.90;;;;;;6209637;23;20014;-82
2022/12/24 05:37:23;;;;;;;10.80;4.13;;;7.40;99.90;;;;;;6183313;23;20012;-83
2022/12/24 05:39:49;;;;;;;9.30;3.72;;;7.40;99.90;;;;;;6182831;23;20139;-80
2022/12/24 05:42:14;;;;;;;7.28;4.22;;;7.50;99.90;;;;;;6210481;23;20341;-81
2022/12/24 05:44:40;;;;;;;8.35;3.88;;;7.50;99.90;;;;;;6211731;23;20000;-80
2022/12/24 05:47:05;;;;;;;6.55;3.22;;;7.50;99.90;;;;;;6185367;23;20388;-82
2022/12/24 05:49:31;;;;;;;5.25;3.85;;;7.50;99.90;;;;;;6211670;23;20007;-80
2022/12/24 05:51:56;;;;;;;7.60;3.55;;;7.60;99.90;;;;;;6185342;23;20005;-80
2022/12/24 05:54:23;;;;;;;8.80;3.83;;;7.60;99.90;;;;;;6211034;23;20035;-80
2022/12/24 05:56:48;;;;;;;9.30;4.90;;;7.60;99.90;;;;;;6184529;23;20112;-79
2022/12/24 05:59:14;;;;;;;12.57;5.22;;;7.60;99.90;;;;;;6182540;23;20051;-78
2022/12/24 06:01:39;;;;;;;10.65;4.78;;;7.70;99.90;;;;;;6210074;23;20005;-78
2022/12/24 06:04:05;;;;;;;16.48;5.38;;;7.70;99.90;;;;;;6214234;23;20000;-81
2022/12/24 06:06:31;;;;;;;13.30;5.85;;;7.80;99.90;;;;;;6190508;23;19997;-81
2022/12/24 06:08:57;;;;;;;16.67;5.80;;;7.80;99.90;;;;;;6215182;23;20051;-81
2022/12/24 06:11:26;;;;;;;27.35;7.03;;;7.80;99.90;;;;;;6213892;23;20009;-82
2022/12/24 06:13:53;;;;;;;26.58;7.65;;;7.80;99.90;;;;;;6188527;23;20087;-73
2022/12/24 06:16:19;;;;;;;20.95;8.15;;;7.90;99.90;;;;;;6189679;23;20019;-82
2022/12/24 06:18:45;;;;;;;29.58;8.40;;;7.80;99.90;;;;;;6216315;23;20028;-82
2022/12/24 06:21:11;;;;;;;26.25;8.35;;;7.90;99.90;;;;;;6187846;23;20424;-75
2022/12/24 06:23:39;;;;;;;30.30;9.07;;;7.90;99.90;;;;;;6188781;23;20004;-76
2022/12/24 06:26:07;;;;;;;26.90;8.10;;;7.90;99.90;;;;;;6188258;23;20035;-77
2022/12/24 06:28:35;;;;;;;24.50;8.40;;;7.90;99.90;;;;;;6188113;23;20001;-78
2022/12/24 06:31:01;;;;;;;23.70;7.75;;;7.90;99.90;;;;;;6188634;23;20543;-79
2022/12/24 06:33:27;;;;;;;23.23;8.60;;;7.90;99.90;;;;;;6215721;23;20011;-79
2022/12/24 06:35:53;;;;;;;33.05;9.85;;;7.80;99.90;;;;;;6188867;23;20005;-78
2022/12/24 06:38:18;;;;;;;31.50;8.70;;;7.80;99.90;;;;;;6188946;23;20004;-78
2022/12/24 06:40:45;;;;;;;30.63;8.50;;;7.80;99.90;;;;;;6213310;23;20015;-76
2022/12/24 06:43:12;;;;;;;39.83;9.48;;;7.80;99.90;;;;;;6187552;23;20004;-76
2022/12/24 06:45:46;;;;;;;43.63;9.50;;;7.90;99.90;;;;;;6188398;23;20059;-76
2022/12/24 06:48:13;;;;;;;39.70;10.23;;;7.90;99.90;;;;;;6189254;23;20011;-77
2022/12/24 06:50:38;;;;;;;45.35;10.57;;;7.90;99.90;;;;;;6188735;23;20008;-76
2022/12/24 06:53:04;;;;;;;31.70;10.18;;;8.00;99.90;;;;;;6189116;23;20011;-77
2022/12/24 06:55:30;;;;;;;44.08;9.55;;;8.00;99.90;;;;;;6186772;23;20450;-76
2022/12/24 06:57:56;;;;;;;59.95;11.88;;;8.00;99.90;;;;;;6188618;23;20000;-76
2022/12/24 07:00:22;;;;;;;51.10;12.63;;;8.00;99.90;;;;;;6187438;23;20015;-76
2022/12/24 07:02:48;;;;;;;68.30;11.98;;;8.00;99.90;;;;;;6188192;23;20004;-76
2022/12/24 07:05:14;;;;;;;65.30;13.10;;;8.10;99.90;;;;;;6211494;23;20412;-75
2022/12/24 07:07:42;;;;;;;68.70;12.07;;;8.10;99.90;;;;;;6183960;23;20005;-75
2022/12/24 07:10:10;;;;;;;57.90;13.05;;;8.20;99.90;;;;;;6183681;23;20008;-75
2022/12/24 07:12:36;;;;;;;60.67;13.18;;;8.20;99.90;;;;;;6211119;23;20008;-74
2022/12/24 07:15:01;;;;;;;63.42;12.38;;;8.20;99.90;;;;;;6211039;23;19997;-74
2022/12/24 07:17:27;;;;;;;46.75;11.27;;;8.20;99.90;;;;;;6213419;23;20004;-82
2022/12/24 07:19:53;;;;;;;61.67;12.57;;;8.20;99.90;;;;;;6193509;23;20005;-82
2022/12/24 07:22:22;;;;;;;51.38;11.85;;;8.30;99.90;;;;;;6194798;23;20084;-82
2022/12/24 07:24:48;;;;;;;67.95;13.95;;;8.30;99.90;;;;;;6194475;23;20659;-82
2022/12/24 07:27:14;;;;;;;47.13;12.45;;;8.30;99.90;;;;;;6220944;23;20008;-81
2022/12/24 07:29:43;;;;;;;52.30;12.43;;;8.30;99.90;;;;;;6192217;23;20000;-83
2022/12/24 07:32:10;;;;;;;57.88;12.80;;;8.20;99.90;;;;;;6189325;23;20340;-80
2022/12/24 07:34:35;;;;;;;58.60;13.30;;;8.30;99.90;;;;;;6186690;23;20004;-75
2022/12/24 07:37:06;;;;;;;52.05;12.35;;;8.30;99.90;;;;;;6187542;23;20608;-75
2022/12/24 07:39:32;;;;;;;46.95;11.20;;;8.30;99.90;;;;;;6211278;23;20008;-75
2022/12/24 07:41:57;;;;;;;43.08;11.43;;;8.20;99.90;;;;;;6182212;23;20051;-75
2022/12/24 07:44:23;;;;;;;45.35;11.65;;;8.20;99.90;;;;;;6208892;23;20009;-75
2022/12/24 07:46:49;;;;;;;35.72;11.40;;;8.30;99.90;;;;;;6186328;23;20489;-75
2022/12/24 07:49:14;;;;;;;57.45;13.77;;;8.20;99.90;;;;;;6186419;23;20001;-76
2022/12/24 07:51:40;;;;;;;40.20;11.65;;;8.20;99.90;;;;;;6186621;23;20011;-76
2022/12/24 07:54:05;;;;;;;42.50;10.98;;;8.20;99.90;;;;;;6210118;23;20000;-76
2022/12/24 07:56:31;;;;;;;62.50;13.77;;;8.20;99.90;;;;;;6183789;23;20009;-75
2022/12/24 07:58:57;;;;;;;59.08;12.98;;;8.20;99.90;;;;;;6183727;23;20336;-75
2022/12/24 08:01:23;;;;;;;62.60;14.55;;;8.20;99.90;;;;;;6183128;23;20005;-75
2022/12/24 08:03:50;;;;;;;62.47;14.40;;;8.20;99.90;;;;;;6210742;23;20003;-75
2022/12/24 08:06:15;;;;;;;46.53;12.52;;;8.20;99.90;;;;;;6210787;23;20008;-75
2022/12/24 08:08:41;;;;;;;49.97;13.70;;;8.20;99.90;;;;;;6210121;23;20004;-75
2022/12/24 08:11:07;;;;;;;60.45;14.30;;;8.20;99.90;;;;;;6183000;23;20074;-75
2022/12/24 08:13:33;;;;;;;44.53;12.00;;;8.10;99.90;;;;;;6210428;23;20008;-76
2022/12/24 08:15:58;;;;;;;61.22;14.55;;;8.20;99.90;;;;;;6183384;23;20008;-75
2022/12/24 08:18:24;;;;;;;57.70;13.00;;;8.20;99.90;;;;;;6183723;23;20075;-75
2022/12/24 08:20:50;;;;;;;56.92;13.50;;;8.20;99.90;;;;;;6182599;23;20028;-75
2022/12/24 08:23:16;;;;;;;59.63;14.05;;;8.20;99.90;;;;;;6183719;23;20008;-76
2022/12/24 08:25:47;;;;;;;50.97;13.88;;;8.20;99.90;;;;;;6183767;23;20005;-75
2022/12/24 08:28:15;;;;;;;82.57;17.67;;;8.20;99.90;;;;;;6184476;23;20383;-76
2022/12/24 08:30:42;;;;;;;70.38;15.75;;;8.20;99.90;;;;;;6209353;23;20386;-76
2022/12/24 08:33:07;;;;;;;75.25;15.45;;;8.20;99.90;;;;;;6213742;23;20005;-75
2022/12/24 08:35:33;;;;;;;66.53;15.45;;;8.20;99.90;;;;;;6213582;23;20009;-76
2022/12/24 08:37:58;;;;;;;73.43;14.45;;;8.20;99.90;;;;;;6213684;23;20005;-79
2022/12/24 08:40:25;;;;;;;88.65;15.80;;;8.10;99.90;;;;;;6183892;23;20427;-80
2022/12/24 08:42:50;;;;;;;74.05;15.18;;;8.10;99.90;;;;;;6184111;23;20035;-79
2022/12/24 08:45:16;;;;;;;54.97;14.30;;;8.20;99.90;;;;;;6210075;23;19997;-79
2022/12/24 08:47:41;;;;;;;56.63;13.48;;;8.30;99.90;;;;;;6210156;23;20335;-80
2022/12/24 08:50:08;;;;;;;79.28;15.52;;;8.30;99.90;;;;;;6183661;23;20222;-80
2022/12/24 08:52:34;;;;;;;75.50;14.00;;;8.30;99.90;;;;;;6182241;23;20008;-80
2022/12/24 08:54:59;;;;;;;78.68;17.50;;;8.20;99.90;;;;;;6210602;23;20008;-80
2022/12/24 08:57:25;;;;;;;50.22;13.20;;;8.20;99.90;;;;;;6184120;23;20005;-80
2022/12/24 08:59:50;;;;;;;45.50;12.90;;;8.20;99.90;;;;;;6209974;23;20004;-80
2022/12/24 09:02:16;;;;;;;57.33;12.32;;;8.20;99.90;;;;;;6185234;23;20015;-81
2022/12/24 09:04:42;;;;;;;60.35;14.05;;;8.30;99.90;;;;;;6212762;23;20000;-80
2022/12/24 09:07:08;;;;;;;57.75;13.25;;;8.30;99.90;;;;;;6212891;23;20001;-79
2022/12/24 09:09:34;;;;;;;69.35;14.25;;;8.40;99.90;;;;;;6212327;23;20013;-79
2022/12/24 09:11:59;;;;;;;61.67;15.70;;;8.40;99.90;;;;;;6212954;23;20329;-80
2022/12/24 09:14:25;;;;;;;83.78;13.63;;;8.40;99.90;;;;;;6212273;23;20313;-81
2022/12/24 09:16:50;;;;;;;71.18;11.88;;;8.50;99.90;;;;;;6211652;23;20428;-80
2022/12/24 09:19:16;;;;;;;66.13;12.60;;;8.50;99.90;;;;;;6214241;23;20058;-80
2022/12/24 09:21:41;;;;;;;63.72;11.82;;;8.40;99.90;;;;;;6189884;23;20151;-80
2022/12/24 09:24:07;;;;;;;67.90;11.55;;;8.60;99.90;;;;;;6217515;23;19997;-80
2022/12/24 09:26:35;;;;;;;41.83;10.07;;;8.60;99.90;;;;;;6217755;23;20008;-80
2022/12/24 09:29:00;;;;;;;57.80;10.68;;;8.60;99.90;;;;;;6192439;23;20008;-80
2022/12/24 09:31:26;;;;;;;49.45;11.27;;;8.60;99.90;;;;;;6218340;23;20009;-79
2022/12/24 09:33:52;;;;;;;63.10;10.93;;;8.60;99.90;;;;;;6216070;23;20005;-81
2022/12/24 09:36:19;;;;;;;58.10;11.20;;;8.50;99.90;;;;;;6189486;23;20008;-80
2022/12/24 09:38:45;;;;;;;65.18;10.77;;;8.60;99.90;;;;;;6188601;23;20015;-80
2022/12/24 09:41:34;;;;;;;55.20;11.07;;;8.60;99.90;;;;;;6188542;23;20005;-80
2022/12/24 09:44:23;;;;;;;54.03;9.90;;;8.60;99.90;;;;;;6187343;23;20127;-80
2022/12/24 09:46:50;;;;;;;58.40;11.85;;;8.60;99.90;;;;;;6187491;23;20012;-81
2022/12/24 09:49:23;;;;;;;69.85;12.32;;;8.60;99.90;;;;;;6187188;23;20008;-80
2022/12/24 09:52:04;;;;;;;53.05;11.50;;;8.60;99.90;;;;;;6186960;23;20076;-80
2022/12/24 09:54:44;;;;;;;63.15;11.93;;;8.60;99.90;;;;;;6187744;23;20012;-80
2022/12/24 09:57:16;;;;;;;;;;;8.60;99.90;;;;;;6214589;23;20464;-81
2022/12/24 09:59:48;;;;;;;47.53;10.93;;;8.60;99.90;;;;;;6185658;23;19900;-80
2022/12/24 10:02:18;;;;;;;58.65;11.13;;;8.60;99.90;;;;;;6187007;23;20030;-80
2022/12/24 10:04:45;;;;;;;47.47;10.75;;;8.50;99.90;;;;;;6213794;23;20008;-81
2022/12/24 10:07:36;;;;;;;52.42;11.55;;;8.50;99.90;;;;;;6187593;23;20317;-81
2022/12/24 10:10:39;;;;;;;57.47;12.15;;;8.50;99.90;;;;;;6213502;23;20005;-81
2022/12/24 10:13:17;;;;;;;47.97;11.48;;;8.60;99.90;;;;;;6186205;23;20023;-80
2022/12/24 10:16:14;;;;;;;60.65;12.82;;;8.60;99.90;;;;;;6213620;23;20084;-80
2022/12/24 10:19:13;;;;;;;62.88;12.20;;;8.60;99.90;;;;;;6187081;23;20012;-80
2022/12/24 10:21:59;;;;;;;49.95;13.00;;;8.70;99.90;;;;;;6063199;23;20488;-80
2022/12/24 10:24:37;;;;;;;44.20;10.23;;;8.70;99.90;;;;;;6186170;23;20008;-80
2022/12/24 10:27:13;;;;;;;52.97;11.50;;;8.80;99.90;;;;;;6187060;23;20005;-80
2022/12/24 10:29:44;;;;;;;57.45;11.05;;;8.80;99.90;;;;;;6213447;23;20915;-80
2022/12/24 10:32:09;;;;;;;44.45;10.75;;;8.90;99.90;;;;;;6213657;23;20471;-79
2022/12/24 10:34:42;;;;;;;59.97;11.85;;;8.80;99.90;;;;;;6213417;23;20007;-79
2022/12/24 10:37:15;;;;;;;55.22;11.77;;;8.90;99.90;;;;;;6214464;23;20001;-80
2022/12/24 10:39:41;;;;;;;51.38;11.80;;;8.90;99.90;;;;;;6186227;23;20000;-79
2022/12/24 10:42:10;;;;;;;56.38;13.18;;;8.80;99.90;;;;;;6186320;23;20005;-79
2022/12/24 10:44:35;;;;;;;50.20;12.35;;;9.00;99.90;;;;;;6212470;23;20008;-79
2022/12/24 10:47:03;;;;;;;52.50;12.43;;;9.20;99.90;;;;;;6212733;23;20375;-80
2022/12/24 10:49:28;;;;;;;42.22;11.10;;;9.30;99.90;;;;;;6184752;23;20001;-80
2022/12/24 10:52:04;;;;;;;41.70;13.25;;;9.40;99.90;;;;;;6186356;23;20083;-80
2022/12/24 10:54:37;;;;;;;57.90;11.07;;;9.50;99.90;;;;;;6185803;23;20004;-80
2022/12/24 10:57:04;;;;;;;56.30;12.93;;;9.40;99.90;;;;;;6186462;23;20321;-80
2022/12/24 10:59:30;;;;;;;70.20;13.15;;;9.50;99.90;;;;;;6212954;23;20004;-79
2022/12/24 11:01:57;;;;;;;39.72;11.75;;;9.90;99.90;;;;;;6213119;23;19997;-80
2022/12/24 11:04:44;;;;;;;51.08;12.02;;;10.30;99.90;;;;;;6212940;23;20032;-79
2022/12/24 11:07:18;;;;;;;31.73;10.05;;;11.50;99.90;;;;;;6213336;23;20005;-81
2022/12/24 11:09:57;;;;;;;32.15;9.85;;;11.90;99.90;;;;;;6186496;23;20265;-81
2022/12/24 11:12:26;;;;;;;24.20;8.63;;;11.90;99.90;;;;;;6213693;23;20055;-80
2022/12/24 11:15:02;;;;;;;36.15;9.30;;;11.70;99.90;;;;;;6187638;23;20291;-77
2022/12/24 11:17:28;;;;;;;37.35;10.82;;;11.70;99.90;;;;;;6186635;23;20026;-76
2022/12/24 11:19:54;;;;;;;34.08;9.60;;;11.60;99.90;;;;;;6185826;23;20043;-77
2022/12/24 11:22:28;;;;;;;31.80;9.10;;;11.50;99.90;;;;;;6184510;23;20004;-77
2022/12/24 11:25:16;;;;;;;41.92;9.88;;;11.30;99.90;;;;;;6184742;23;20004;-76
2022/12/24 11:27:46;;;;;;;43.13;12.18;;;11.10;99.90;;;;;;6184355;23;19996;-77
2022/12/24 11:30:14;;;;;;;34.72;9.68;;;11.00;99.90;;;;;;6210876;23;20004;-77
2022/12/24 11:32:59;;;;;;;23.30;8.35;;;10.90;99.90;;;;;;6211050;23;20248;-77
2022/12/24 11:35:25;;;;;;;28.42;9.00;;;10.80;99.90;;;;;;6211373;23;20016;-76
2022/12/24 11:38:00;;;;;;;41.33;9.77;;;10.70;99.90;;;;;;6210986;23;20005;-76
2022/12/24 11:40:34;;;;;;;30.58;9.05;;;10.60;99.90;;;;;;6209788;23;20000;-76
2022/12/24 11:43:02;;;;;;;35.47;9.15;;;10.60;99.90;;;;;;6184376;23;20048;-76
2022/12/24 11:45:30;;;;;;;34.45;8.85;;;10.50;99.90;;;;;;6184067;23;20001;-76
2022/12/24 11:47:57;;;;;;;28.90;8.93;;;10.40;99.90;;;;;;6210644;23;19997;-76
2022/12/24 11:50:37;;;;;;;34.25;8.93;;;10.30;99.90;;;;;;6183538;23;20001;-76
2022/12/24 11:53:02;;;;;;;41.42;10.52;;;10.30;99.90;;;;;;6184065;23;20004;-76
2022/12/24 11:55:44;;;;;;;23.10;8.15;;;10.20;99.90;;;;;;6184100;23;20005;-76
2022/12/24 11:58:19;;;;;;;21.70;7.90;;;10.10;99.90;;;;;;6210679;23;20004;-76
2022/12/24 12:00:46;;;;;;;28.15;7.72;;;10.10;99.90;;;;;;6183670;23;20005;-76
2022/12/24 12:03:30;;;;;;;34.30;10.05;;;10.00;99.90;;;;;;6205528;23;20663;-77
2022/12/24 12:06:00;;;;;;;29.38;9.27;;;9.90;99.90;;;;;;6183720;23;20008;-80
2022/12/24 12:08:27;;;;;;;36.85;10.63;;;9.90;99.90;;;;;;6184245;23;20004;-80
2022/12/24 12:10:54;;;;;;;39.67;10.75;;;9.80;99.90;;;;;;6210471;23;20009;-80
2022/12/24 12:13:26;;;;;;;36.20;11.25;;;9.70;99.90;;;;;;6210849;23;20012;-80
2022/12/24 12:16:06;;;;;;;45.05;12.82;;;9.60;99.90;;;;;;6184443;23;20039;-77
2022/12/24 12:18:37;;;;;;;34.97;11.20;;;9.60;99.90;;;;;;6185394;23;20039;-76
2022/12/24 12:21:13;;;;;;;35.88;10.40;;;9.60;99.90;;;;;;6183318;23;20157;-77
2022/12/24 12:23:54;;;;;;;31.58;11.43;;;9.60;99.90;;;;;;6184029;23;20028;-76
2022/12/24 12:26:26;;;;;;;51.55;12.15;;;9.50;99.90;;;;;;6211093;23;20001;-75
2022/12/24 12:29:09;;;;;;;32.65;11.20;;;9.50;99.90;;;;;;6184084;23;20005;-76
2022/12/24 12:31:41;;;;;;;39.22;11.82;;;9.50;99.90;;;;;;6184588;23;20012;-76
2022/12/24 12:34:09;;;;;;;29.35;10.80;;;9.40;99.90;;;;;;6183860;23;20139;-77
2022/12/24 12:37:01;;;;;;;33.33;10.73;;;9.50;99.90;;;;;;6183904;23;20448;-77
2022/12/24 12:39:30;;;;;;;31.25;10.70;;;9.40;99.90;;;;;;6183318;23;20020;-82
2022/12/24 12:42:16;;;;;;;48.70;11.90;;;9.40;99.90;;;;;;6210967;23;20094;-81
2022/12/24 12:44:54;;;;;;;25.10;9.93;;;9.40;99.90;;;;;;6184940;23;20601;-82
2022/12/24 12:47:39;;;;;;;25.67;9.88;;;9.40;99.90;;;;;;6210886;23;20170;-81
2022/12/24 12:50:18;;;;;;;47.65;12.80;;;9.40;99.90;;;;;;6183880;23;20000;-82
2022/12/24 12:52:54;;;;;;;29.60;10.48;;;9.40;99.90;;;;;;6211334;23;20335;-81
2022/12/24 12:55:43;;;;;;;34.95;11.15;;;9.40;99.90;;;;;;6224898;23;20008;-84
2022/12/24 12:58:30;;;;;;;36.25;11.02;;;9.40;99.90;;;;;;6228953;23;20012;-82
2022/12/24 13:01:26;;;;;;;35.85;10.85;;;9.40;99.90;;;;;;6227976;23;20024;-82
2022/12/24 13:04:33;;;;;;;32.28;10.02;;;9.40;99.90;;;;;;6179618;23;20005;-81
2022/12/24 13:07:23;;;;;;;30.35;12.00;;;9.40;99.90;;;;;;6202320;23;20092;-82